Terminal Aerodrome Forecast
Issued by NWS Duluth, MN

Home | Current Version | Previous Version | Text Only | Print | Product List | Glossary On
Versions: 1 2 3 4 5 6 7 8 9 10 11 12 13 14 15 16 17 18 19 20 21 22 23 24 25 26 27 28
101
FTUS43 KDLH 252259 AAB
TAFDLH
TAF AMD
KDLH 252259Z 2523/2618 01005KT P6SM VCSH BKN009 OVC025
      TEMPO 2600/2603 6SM -SHRA BR SCT009 BKN015 OVC025
     FM260400 04006KT 3SM SHRA BR OVC006
     FM260700 06008KT 1 1/2SM -SHRA BR OVC004
     FM261600 05006KT 3SM -SHRA BR OVC004=

USA.gov is the U.S. government's official web portal to all federal, state and local government web resources and services.